Main page
METAR-TAF:

METAR-TAF

Airports :

Reus, Spain

Reus Airport

latitude: 41-09N, longitude: 001-10E, elevation: 71 m

Current weather observation

The report was made 44 minutes ago, at 03:00 UTC
Wind 3 kt from the North/Northeast
Temperature 12°C
Humidity 76%
Pressure 1020 hPa
Visibility 10 km or more

METAR: LERS 200300Z AUTO 02003KT 9999 NCD 12/08 Q1020

Time: 05:44 (03:44 UTC)

Forecast

The report was made 1 hour and 44 minutes ago, at 02:00 UTC
Forecast valid from 20 at 03 UTC to 21 at 03 UTC
Wind 4 kt from variable directions
Visibility 10 km or more
Few clouds at a height of 2500 ft
Temporary
from 20 at 06 UTC to 20 at 18 UTC
Broken clouds at a height of 1400 ft
Becoming
from 20 at 12 UTC to 20 at 14 UTC
Wind 7 kt from the Southeast
Becoming
from 20 at 18 UTC to 20 at 20 UTC
Wind 3 kt from variable directions

TAF: LERS 200200Z 2003/2103 VRB04KT 9999 FEW025 TX24/2012Z TN14/2006Z TEMPO 2006/2018 BKN014 BECMG 2012/2014 13007KT BECMG 2018/2020 VRB03KT

Weather observations and forecasts of more than 4000 airports (METAR and TAF reports).

The available stations are represented by yellow and red dots on the map.

Hover mouse over dot to see the name of the station.

Then click to see weather observations and forecasts.

To change the map : click on the green buttons with a black cross to zoom in, on the green button with a dash to zoom out, or on the green arrows for adjacent maps.


METAR-TAF: